Terminal Aerodrome Forecast
Issued by NWS Wakefield, VA

Home | Current Version | Previous Version | Text Only | Print | Product List | Glossary On
Versions: 1 2 3 4 5 6 7 8 9 10 11 12 13
000
FTUS41 KAKQ 050628 AAA
TAFORF
TAF AMD
KORF 050628Z 0506/0606 14004KT 4SM -RA SCT005 OVC012
      TEMPO 0506/0508 3SM -RA BR BKN005
     FM050800 VRB03KT 5SM -RA BR OVC005
     FM051400 35005KT P6SM VCSH OVC020
     FM051600 36007KT P6SM BKN040
     FM052000 34009KT P6SM BKN250=

USA.gov is the U.S. government's official web portal to all federal, state and local government web resources and services.